Time;durP1;ratioP1;P1;durP2;ratioP2;P2;SDS_P1;SDS_P2;PMS_P1;PMS_P2;Temp;Humidity;BMP_temperature;BMP_pressure;BME280_temperature;BME280_humidity;BME280_pressure;Samples;Min_cycle;Max_cycle;Signal;HPM_P1;HPM_P2
2022/02/12 00:03:40;;;;;;;9.82;2.53;;;0.10;99.90;;;;;;20753061;28;20038;-75
2022/02/12 00:13:41;;;;;;;4.00;1.92;;;0.20;99.90;;;;;;20751810;28;20026;-74
2022/02/12 00:23:42;;;;;;;9.05;2.30;;;-0.10;99.90;;;;;;20734895;28;20038;-74
2022/02/12 00:33:43;;;;;;;6.00;2.45;;;0.10;99.90;;;;;;20734686;28;20029;-74
2022/02/12 00:43:43;;;;;;;5.65;2.05;;;0.00;99.90;;;;;;20731768;28;20040;-75
2022/02/12 00:53:44;;;;;;;11.88;3.47;;;0.00;99.90;;;;;;20731509;28;20724;-75
2022/02/12 01:03:45;;;;;;;11.23;3.80;;;0.10;99.90;;;;;;20730937;28;20040;-74
2022/02/12 01:13:46;;;;;;;7.47;4.03;;;0.10;99.90;;;;;;20730510;28;20042;-75
2022/02/12 01:23:49;;;;;;;9.88;4.00;;;0.00;99.90;;;;;;20711710;28;20034;-75
2022/02/12 01:33:49;;;;;;;6.60;3.80;;;-0.10;99.90;;;;;;20732343;28;20033;-74
2022/02/12 01:43:50;;;;;;;9.05;4.05;;;-0.10;99.90;;;;;;20781328;22;20049;-76
2022/02/12 01:53:53;;;;;;;8.48;3.70;;;-0.20;99.90;;;;;;20776153;28;20038;-76
2022/02/12 02:03:54;;;;;;;9.38;3.65;;;-0.30;99.90;;;;;;20811995;28;20427;-76
2022/02/12 02:13:55;;;;;;;11.30;4.43;;;-0.20;99.90;;;;;;20827322;28;20030;-76
2022/02/12 02:23:56;;;;;;;9.68;3.40;;;-0.20;99.90;;;;;;20826330;28;20375;-76
2022/02/12 02:33:57;;;;;;;8.45;3.80;;;-0.30;99.90;;;;;;20825793;28;20038;-76
2022/02/12 02:43:58;;;;;;;9.32;4.10;;;-0.40;99.90;;;;;;20825526;28;20091;-76
2022/02/12 03:04:20;;;;;;;10.98;4.70;;;-0.50;99.90;;;;;;20824756;28;20052;-75
2022/02/12 03:14:21;;;;;;;7.60;4.00;;;-0.60;99.90;;;;;;20824409;28;20121;-76
2022/02/12 03:24:21;;;;;;;8.63;3.80;;;-0.60;99.90;;;;;;20823884;28;20065;-76
2022/02/12 03:34:22;;;;;;;6.85;3.40;;;-0.60;99.90;;;;;;20830097;28;20091;-77
2022/02/12 03:44:23;;;;;;;14.57;3.78;;;-0.60;99.90;;;;;;20821234;28;20124;-77
2022/02/12 03:54:24;;;;;;;11.15;3.80;;;-0.80;99.90;;;;;;20838118;28;20050;-77
2022/02/12 04:04:24;;;;;;;11.10;3.95;;;-0.90;99.90;;;;;;20837461;28;20036;-77
2022/02/12 04:14:25;;;;;;;9.32;3.90;;;-0.80;99.90;;;;;;20836350;28;20092;-76
2022/02/12 04:24:26;;;;;;;10.10;3.47;;;-0.80;99.90;;;;;;20835663;28;20025;-76
2022/02/12 04:34:27;;;;;;;6.78;3.53;;;-0.80;99.90;;;;;;20835346;28;20026;-76
2022/02/12 04:44:28;;;;;;;8.25;3.60;;;-0.80;99.90;;;;;;20833883;28;20048;-76
2022/02/12 04:54:28;;;;;;;12.27;4.50;;;-0.80;99.90;;;;;;20833366;28;20029;-76
2022/02/12 05:04:30;;;;;;;14.52;4.30;;;-0.90;99.90;;;;;;20798570;28;20496;-76
2022/02/12 05:14:31;;;;;;;6.63;3.70;;;-1.10;99.90;;;;;;20813875;28;20037;-76
2022/02/12 05:24:32;;;;;;;9.32;4.60;;;-1.20;99.90;;;;;;20830837;28;20033;-77
2022/02/12 05:34:33;;;;;;;10.10;3.92;;;-1.20;99.90;;;;;;20830338;28;20033;-76
2022/02/12 05:44:34;;;;;;;14.13;3.70;;;-1.30;99.90;;;;;;20811642;28;20037;-76
2022/02/12 05:54:34;;;;;;;13.57;4.18;;;-1.10;99.90;;;;;;20810113;28;20037;-76
2022/02/12 06:04:35;;;;;;;12.55;3.78;;;-1.50;99.90;;;;;;20827954;28;20053;-76
2022/02/12 06:14:36;;;;;;;14.35;4.05;;;-1.30;99.90;;;;;;20810112;28;20034;-76
2022/02/12 06:24:37;;;;;;;13.80;3.63;;;-1.20;99.90;;;;;;20833225;28;20468;-76
2022/02/12 06:34:38;;;;;;;8.45;3.70;;;-1.10;99.90;;;;;;20826617;28;20033;-76
2022/02/12 06:44:39;;;;;;;6.22;3.03;;;-1.10;99.90;;;;;;20807500;28;20087;-76
2022/02/12 06:54:39;;;;;;;12.98;4.22;;;-1.10;99.90;;;;;;20824807;28;20025;-76
2022/02/12 07:04:40;;;;;;;16.15;4.50;;;-1.10;99.90;;;;;;20817962;28;20036;-75
2022/02/12 07:14:41;;;;;;;16.20;4.43;;;-0.70;99.90;;;;;;20758599;28;20041;-75
2022/02/12 07:24:42;;;;;;;11.52;3.85;;;-0.10;99.90;;;;;;20771175;28;20036;-75
2022/02/12 07:34:42;;;;;;;15.80;5.90;;;0.50;99.90;;;;;;20757729;28;20091;-76
2022/02/12 07:44:43;;;;;;;11.00;5.30;;;1.30;99.90;;;;;;20803679;22;20510;-76
2022/02/12 07:54:44;;;;;;;11.88;4.55;;;2.20;99.90;;;;;;20837589;28;20479;-77
2022/02/12 08:04:45;;;;;;;9.40;4.40;;;2.90;99.90;;;;;;20836958;28;20458;-77
2022/02/12 08:14:50;;;;;;;;;;;3.70;99.90;;;;;;20840315;28;20060;-80
2022/02/12 08:24:50;;;;;;;8.05;3.20;;;4.80;99.90;;;;;;20846336;28;19913;-75
2022/02/12 08:34:51;;;;;;;43.17;14.40;;;5.30;99.90;;;;;;20834614;28;20072;-75
2022/02/12 08:44:52;;;;;;;82.67;28.43;;;5.60;99.90;;;;;;20832524;28;20033;-74
2022/02/12 08:54:53;;;;;;;57.27;22.37;;;5.80;99.90;;;;;;20832931;28;20029;-74
2022/02/12 09:04:54;;;;;;;18.00;6.65;;;5.80;99.90;;;;;;20830852;28;20515;-73
2022/02/12 09:14:55;;;;;;;53.90;24.37;;;7.00;99.90;;;;;;20784651;28;20045;-74
2022/02/12 09:24:56;;;;;;;8.00;4.47;;;7.30;99.90;;;;;;20778483;28;20029;-74
2022/02/12 09:34:57;;;;;;;14.17;3.77;;;7.80;99.90;;;;;;20829629;28;20394;-74
2022/02/12 09:44:58;;;;;;;6.37;3.20;;;8.10;99.90;;;;;;20824969;28;20033;-74
2022/02/12 09:54:59;;;;;;;10.10;4.93;;;7.80;99.90;;;;;;20763575;28;20025;-76
2022/02/12 10:05:22;;;;;;;7.18;4.10;;;8.20;99.90;;;;;;20748099;28;20484;-78
2022/02/12 10:15:26;;;;;;;5.22;3.60;;;8.50;99.90;;;;;;20752328;28;20532;-75
2022/02/12 10:25:27;;;;;;;6.40;3.45;;;8.40;99.90;;;;;;20750567;28;20440;-77
2022/02/12 10:35:29;;;;;;;9.77;3.43;;;9.00;99.90;;;;;;20748459;28;20099;-77
2022/02/12 10:45:31;;;;;;;10.02;5.22;;;9.20;99.90;;;;;;20747794;28;20038;-76
2022/02/12 10:55:36;;;;;;;11.35;4.22;;;8.70;99.90;;;;;;20763073;28;20033;-77
2022/02/12 11:05:40;;;;;;;7.32;3.97;;;8.80;99.90;;;;;;20785408;28;20534;-77
2022/02/12 11:15:41;;;;;;;7.78;3.83;;;8.90;99.90;;;;;;20786813;28;20025;-77
2022/02/12 11:25:42;;;;;;;6.80;3.40;;;7.90;99.90;;;;;;20750357;28;20373;-75
2022/02/12 11:35:43;;;;;;;5.83;2.63;;;8.20;99.90;;;;;;20750099;28;20077;-76
2022/02/12 11:45:47;;;;;;;5.18;2.83;;;7.30;99.90;;;;;;20790231;28;20200;-75
2022/02/12 11:55:48;;;;;;;7.18;2.83;;;8.20;99.90;;;;;;20813085;28;20039;-74
2022/02/12 12:06:08;;;;;;;20.60;6.37;;;9.20;99.90;;;;;;20841485;28;20033;-77
2022/02/12 12:16:17;;;;;;;6.60;3.58;;;9.30;99.90;;;;;;20887859;28;20033;-77
2022/02/12 12:26:18;;;;;;;8.70;3.08;;;11.20;99.90;;;;;;20820409;28;20527;-76
2022/02/12 12:36:19;;;;;;;8.10;4.20;;;10.80;99.90;;;;;;20816473;28;20029;-77
2022/02/12 12:46:20;;;;;;;9.53;4.60;;;9.60;99.90;;;;;;20856057;28;20136;-76
2022/02/12 12:56:24;;;;;;;6.83;3.80;;;11.20;99.90;;;;;;20814128;28;20037;-76
2022/02/12 13:06:26;;;;;;;7.18;3.60;;;11.70;99.90;;;;;;20804173;28;20112;-76
2022/02/12 13:16:32;;;;;;;69.05;30.77;;;11.90;99.90;;;;;;20810273;28;20483;-76
2022/02/12 13:26:37;;;;;;;6.22;3.85;;;11.80;99.90;;;;;;20813394;28;20492;-75
2022/02/12 13:36:45;;;;;;;6.57;3.30;;;12.30;99.90;;;;;;20810165;28;20037;-76
2022/02/12 13:46:46;;;;;;;8.75;3.30;;;12.40;99.90;;;;;;20847560;22;20049;-76
2022/02/12 13:56:51;;;;;;;7.87;3.47;;;11.40;99.90;;;;;;20809179;28;20045;-77
2022/02/12 14:06:52;;;;;;;4.25;2.85;;;10.70;99.90;;;;;;20808260;28;20063;-76
2022/02/12 14:16:53;;;;;;;7.20;3.40;;;10.80;99.90;;;;;;20806673;28;20731;-76
2022/02/12 14:26:55;;;;;;;5.33;3.37;;;10.00;99.90;;;;;;20780537;28;20148;-77
2022/02/12 14:36:56;;;;;;;4.78;3.05;;;9.00;99.90;;;;;;20789977;28;20037;-76
2022/02/12 14:46:58;;;;;;;7.90;3.40;;;8.80;99.90;;;;;;20825514;28;20080;-76
2022/02/12 14:56:59;;;;;;;5.07;2.30;;;8.90;99.90;;;;;;20807409;28;20037;-77
2022/02/12 15:06:59;;;;;;;6.07;3.00;;;9.50;99.90;;;;;;20825360;28;20056;-77
2022/02/12 15:17:02;;;;;;;7.87;4.40;;;10.20;99.90;;;;;;20805366;28;20484;-77
2022/02/12 15:27:03;;;;;;;7.78;3.65;;;10.40;99.90;;;;;;20818049;28;20021;-76
2022/02/12 15:37:04;;;;;;;7.60;4.43;;;10.00;99.90;;;;;;20767894;28;20030;-76
2022/02/12 15:47:06;;;;;;;9.20;4.67;;;9.80;99.90;;;;;;20756827;28;20041;-76
2022/02/12 15:57:06;;;;;;;6.67;4.50;;;9.50;99.90;;;;;;20738725;28;20095;-76
2022/02/12 16:07:07;;;;;;;11.30;4.57;;;8.20;99.90;;;;;;20737239;28;20684;-76
2022/02/12 16:17:08;;;;;;;11.73;6.73;;;7.10;99.90;;;;;;20736734;28;20026;-77
2022/02/12 16:27:09;;;;;;;9.27;5.63;;;6.00;99.90;;;;;;20754017;28;20029;-75
2022/02/12 16:37:10;;;;;;;12.40;7.60;;;5.10;99.90;;;;;;20755395;28;20030;-76
2022/02/12 16:47:12;;;;;;;12.97;6.63;;;4.70;99.90;;;;;;20752345;28;20117;-76
2022/02/12 16:57:13;;;;;;;16.15;6.80;;;4.00;99.90;;;;;;20751495;28;20040;-76
2022/02/12 17:07:14;;;;;;;12.27;5.00;;;3.50;99.90;;;;;;20743659;28;20577;-78
2022/02/12 17:17:15;;;;;;;8.65;4.78;;;3.20;99.90;;;;;;20769440;28;20357;-78
2022/02/12 17:27:16;;;;;;;11.73;4.97;;;2.90;99.90;;;;;;20769770;28;20057;-78
2022/02/12 17:37:16;;;;;;;10.52;4.70;;;2.90;99.90;;;;;;20752961;28;20132;-78
2022/02/12 17:47:17;;;;;;;;;;;2.80;99.90;;;;;;20734487;28;20034;-76
2022/02/12 17:57:18;;;;;;;15.18;5.72;;;3.00;99.90;;;;;;20745709;28;19920;-75
2022/02/12 18:07:19;;;;;;;13.20;5.90;;;2.60;99.90;;;;;;20737360;28;20030;-77
2022/02/12 18:17:20;;;;;;;16.83;7.25;;;2.50;99.90;;;;;;20757107;28;20038;-78
2022/02/12 18:27:21;;;;;;;13.52;7.05;;;2.30;99.90;;;;;;20766522;28;20049;-78
2022/02/12 18:37:22;;;;;;;17.27;7.07;;;2.00;99.90;;;;;;20790675;28;20046;-78
2022/02/12 18:47:23;;;;;;;13.75;7.55;;;1.90;99.90;;;;;;20838517;28;20037;-78
2022/02/12 18:57:24;;;;;;;17.63;7.75;;;1.80;99.90;;;;;;20854360;28;20153;-78
2022/02/12 19:07:25;;;;;;;13.32;6.80;;;1.80;99.90;;;;;;20862537;28;20054;-77
2022/02/12 19:17:26;;;;;;;17.10;7.20;;;1.70;99.90;;;;;;20772361;28;20479;-74
2022/02/12 19:27:27;;;;;;;17.13;7.82;;;1.70;99.90;;;;;;20758464;28;20057;-74
2022/02/12 19:37:29;;;;;;;12.27;6.32;;;1.60;99.90;;;;;;20797485;28;20037;-74
2022/02/12 19:47:30;;;;;;;13.45;7.40;;;1.60;99.90;;;;;;20791857;22;20499;-75
2022/02/12 19:57:33;;;;;;;16.35;7.60;;;1.50;99.90;;;;;;20677117;28;20053;-75
2022/02/12 20:07:34;;;;;;;15.32;7.72;;;1.40;99.90;;;;;;20678657;28;20504;-76
2022/02/12 20:17:35;;;;;;;11.95;6.60;;;1.50;99.90;;;;;;20671325;28;20030;-76
2022/02/12 20:27:36;;;;;;;14.70;7.30;;;1.40;99.90;;;;;;20681599;28;20037;-75
2022/02/12 20:37:37;;;;;;;17.30;7.13;;;1.10;99.90;;;;;;20716141;28;20041;-75
2022/02/12 20:47:38;;;;;;;11.05;6.30;;;1.10;99.90;;;;;;20669360;28;20118;-74
2022/02/12 20:57:39;;;;;;;13.57;7.32;;;1.10;99.90;;;;;;20679911;28;20528;-76
2022/02/12 21:07:40;;;;;;;14.80;7.25;;;1.20;99.90;;;;;;20668488;28;20037;-74
2022/02/12 21:17:41;;;;;;;14.30;6.65;;;1.10;99.90;;;;;;20649896;28;20037;-75
2022/02/12 21:27:41;;;;;;;16.20;7.53;;;1.00;99.90;;;;;;20664824;28;20030;-74
2022/02/12 21:37:42;;;;;;;14.45;6.32;;;0.80;99.90;;;;;;20665204;28;20041;-76
2022/02/12 21:47:43;;;;;;;12.93;6.18;;;0.70;99.90;;;;;;20664918;28;20040;-75
2022/02/12 21:57:45;;;;;;;13.75;6.78;;;0.70;99.90;;;;;;20662893;28;20467;-75
2022/02/12 22:07:45;;;;;;;16.90;6.55;;;0.60;99.90;;;;;;20645857;28;20552;-76
2022/02/12 22:17:46;;;;;;;16.90;7.38;;;0.60;99.90;;;;;;20644892;28;20084;-76
2022/02/12 22:27:50;;;;;;;14.40;6.65;;;0.60;99.90;;;;;;20662829;28;20038;-75
2022/02/12 22:37:51;;;;;;;16.33;6.50;;;0.50;99.90;;;;;;20644901;28;20044;-75
2022/02/12 22:47:53;;;;;;;16.98;7.35;;;0.40;99.90;;;;;;20662304;28;20066;-76
2022/02/12 22:57:54;;;;;;;13.23;7.55;;;0.30;99.90;;;;;;20660556;28;20066;-75
2022/02/12 23:07:55;;;;;;;16.77;7.78;;;0.30;99.90;;;;;;20682824;28;20037;-76
2022/02/12 23:17:55;;;;;;;15.98;7.45;;;0.20;99.90;;;;;;20682331;28;20030;-76
2022/02/12 23:27:56;;;;;;;17.05;8.45;;;0.20;99.90;;;;;;20698743;28;20026;-76
2022/02/12 23:37:57;;;;;;;21.05;8.20;;;0.10;99.90;;;;;;20666461;28;20022;-75
2022/02/12 23:47:58;;;;;;;16.52;7.70;;;0.10;99.90;;;;;;20667765;28;20057;-75
2022/02/12 23:58:00;;;;;;;14.75;8.80;;;0.20;99.90;;;;;;20654884;28;20109;-75
